sensor_id;sensor_type;location;lat;lon;timestamp;temperature;humidity
40932;DHT22;36257;46.052;12.540;2023-05-09T00:01:13;16.60;99.90
40932;DHT22;36257;46.052;12.540;2023-05-09T00:03:39;16.60;99.90
40932;DHT22;36257;46.052;12.540;2023-05-09T00:06:07;16.60;99.90
40932;DHT22;36257;46.052;12.540;2023-05-09T00:08:33;16.60;99.90
40932;DHT22;36257;46.052;12.540;2023-05-09T00:11:00;16.50;99.90
40932;DHT22;36257;46.052;12.540;2023-05-09T00:13:26;16.50;99.90
40932;DHT22;36257;46.052;12.540;2023-05-09T00:15:52;16.40;99.90
40932;DHT22;36257;46.052;12.540;2023-05-09T00:18:19;16.30;99.90
40932;DHT22;36257;46.052;12.540;2023-05-09T00:20:46;16.30;99.90
40932;DHT22;36257;46.052;12.540;2023-05-09T00:23:12;16.20;99.90
40932;DHT22;36257;46.052;12.540;2023-05-09T00:25:37;16.20;99.90
40932;DHT22;36257;46.052;12.540;2023-05-09T00:28:03;16.20;99.90
40932;DHT22;36257;46.052;12.540;2023-05-09T00:30:29;16.20;99.90
40932;DHT22;36257;46.052;12.540;2023-05-09T00:32:55;16.20;99.90
40932;DHT22;36257;46.052;12.540;2023-05-09T00:35:21;16.30;99.90
40932;DHT22;36257;46.052;12.540;2023-05-09T00:37:46;16.30;99.90
40932;DHT22;36257;46.052;12.540;2023-05-09T00:40:12;16.30;99.90
40932;DHT22;36257;46.052;12.540;2023-05-09T00:42:38;16.30;99.90
40932;DHT22;36257;46.052;12.540;2023-05-09T00:45:04;16.20;99.90
40932;DHT22;36257;46.052;12.540;2023-05-09T00:47:32;16.20;99.90
40932;DHT22;36257;46.052;12.540;2023-05-09T00:49:58;16.20;99.90
40932;DHT22;36257;46.052;12.540;2023-05-09T00:52:24;16.20;99.90
40932;DHT22;36257;46.052;12.540;2023-05-09T00:54:54;16.20;99.90
40932;DHT22;36257;46.052;12.540;2023-05-09T00:57:21;16.20;99.90
40932;DHT22;36257;46.052;12.540;2023-05-09T00:59:47;16.20;99.90
40932;DHT22;36257;46.052;12.540;2023-05-09T01:02:14;16.20;99.90
40932;DHT22;36257;46.052;12.540;2023-05-09T01:04:42;16.20;99.90
40932;DHT22;36257;46.052;12.540;2023-05-09T01:13:00;16.20;99.90
40932;DHT22;36257;46.052;12.540;2023-05-09T01:15:45;16.20;99.90
40932;DHT22;36257;46.052;12.540;2023-05-09T01:18:24;16.10;99.90
40932;DHT22;36257;46.052;12.540;2023-05-09T01:21:04;16.10;99.90
40932;DHT22;36257;46.052;12.540;2023-05-09T01:24:33;16.00;99.90
40932;DHT22;36257;46.052;12.540;2023-05-09T01:27:05;16.00;99.90
40932;DHT22;36257;46.052;12.540;2023-05-09T01:29:41;16.00;99.90
40932;DHT22;36257;46.052;12.540;2023-05-09T01:32:16;16.10;99.90
40932;DHT22;36257;46.052;12.540;2023-05-09T01:34:44;16.00;99.90
40932;DHT22;36257;46.052;12.540;2023-05-09T01:37:13;16.00;99.90
40932;DHT22;36257;46.052;12.540;2023-05-09T01:39:45;16.00;99.90
40932;DHT22;36257;46.052;12.540;2023-05-09T01:42:12;16.00;99.90
40932;DHT22;36257;46.052;12.540;2023-05-09T01:44:42;16.00;99.90
40932;DHT22;36257;46.052;12.540;2023-05-09T01:47:08;16.00;99.90
40932;DHT22;36257;46.052;12.540;2023-05-09T01:49:36;16.10;99.90
40932;DHT22;36257;46.052;12.540;2023-05-09T01:52:15;16.00;99.90
40932;DHT22;36257;46.052;12.540;2023-05-09T01:54:43;16.10;99.90
40932;DHT22;36257;46.052;12.540;2023-05-09T01:57:10;16.10;99.90
40932;DHT22;36257;46.052;12.540;2023-05-09T01:59:39;16.00;99.90
40932;DHT22;36257;46.052;12.540;2023-05-09T02:02:06;16.00;99.90
40932;DHT22;36257;46.052;12.540;2023-05-09T02:04:33;16.00;99.90
40932;DHT22;36257;46.052;12.540;2023-05-09T02:07:00;16.00;99.90
40932;DHT22;36257;46.052;12.540;2023-05-09T02:09:27;16.00;99.90
40932;DHT22;36257;46.052;12.540;2023-05-09T02:11:53;16.00;99.90
40932;DHT22;36257;46.052;12.540;2023-05-09T02:14:19;16.10;99.90
40932;DHT22;36257;46.052;12.540;2023-05-09T02:16:44;16.10;99.90
40932;DHT22;36257;46.052;12.540;2023-05-09T02:19:10;16.00;99.90
40932;DHT22;36257;46.052;12.540;2023-05-09T02:21:36;16.10;99.90
40932;DHT22;36257;46.052;12.540;2023-05-09T02:24:02;16.10;99.90
40932;DHT22;36257;46.052;12.540;2023-05-09T02:26:28;16.10;99.90
40932;DHT22;36257;46.052;12.540;2023-05-09T02:28:54;16.00;99.90
40932;DHT22;36257;46.052;12.540;2023-05-09T02:31:21;16.00;99.90
40932;DHT22;36257;46.052;12.540;2023-05-09T02:33:47;15.90;99.90
40932;DHT22;36257;46.052;12.540;2023-05-09T02:36:15;15.80;99.90
40932;DHT22;36257;46.052;12.540;2023-05-09T02:38:42;15.80;99.90
40932;DHT22;36257;46.052;12.540;2023-05-09T02:41:14;15.70;99.90
40932;DHT22;36257;46.052;12.540;2023-05-09T02:43:40;15.60;99.90
40932;DHT22;36257;46.052;12.540;2023-05-09T02:46:07;15.60;99.90
40932;DHT22;36257;46.052;12.540;2023-05-09T02:48:33;15.70;99.90
40932;DHT22;36257;46.052;12.540;2023-05-09T02:50:59;15.80;99.90
40932;DHT22;36257;46.052;12.540;2023-05-09T02:53:24;15.90;99.90
40932;DHT22;36257;46.052;12.540;2023-05-09T02:55:50;15.80;99.90
40932;DHT22;36257;46.052;12.540;2023-05-09T02:58:16;15.90;99.90
40932;DHT22;36257;46.052;12.540;2023-05-09T03:00:41;15.80;99.90
40932;DHT22;36257;46.052;12.540;2023-05-09T03:03:07;15.90;99.90
40932;DHT22;36257;46.052;12.540;2023-05-09T03:05:33;15.80;99.90
40932;DHT22;36257;46.052;12.540;2023-05-09T03:07:59;15.80;99.90
40932;DHT22;36257;46.052;12.540;2023-05-09T03:10:25;15.90;99.90
40932;DHT22;36257;46.052;12.540;2023-05-09T03:12:50;15.90;99.90
40932;DHT22;36257;46.052;12.540;2023-05-09T03:15:16;15.90;99.90
40932;DHT22;36257;46.052;12.540;2023-05-09T03:17:41;16.00;99.90
40932;DHT22;36257;46.052;12.540;2023-05-09T03:20:08;16.00;99.90
40932;DHT22;36257;46.052;12.540;2023-05-09T03:22:35;16.00;99.90
40932;DHT22;36257;46.052;12.540;2023-05-09T03:25:00;16.00;99.90
40932;DHT22;36257;46.052;12.540;2023-05-09T03:27:26;16.10;99.90
40932;DHT22;36257;46.052;12.540;2023-05-09T03:29:52;16.00;99.90
40932;DHT22;36257;46.052;12.540;2023-05-09T03:32:17;16.00;99.90
40932;DHT22;36257;46.052;12.540;2023-05-09T03:34:43;16.10;99.90
40932;DHT22;36257;46.052;12.540;2023-05-09T03:37:08;16.10;99.90
40932;DHT22;36257;46.052;12.540;2023-05-09T03:39:34;16.00;99.90
40932;DHT22;36257;46.052;12.540;2023-05-09T03:42:00;16.00;99.90
40932;DHT22;36257;46.052;12.540;2023-05-09T03:44:25;16.00;99.90
40932;DHT22;36257;46.052;12.540;2023-05-09T03:46:51;16.00;99.90
40932;DHT22;36257;46.052;12.540;2023-05-09T03:49:17;16.00;99.90
40932;DHT22;36257;46.052;12.540;2023-05-09T03:51:42;15.90;99.90
40932;DHT22;36257;46.052;12.540;2023-05-09T03:54:08;15.90;99.90
40932;DHT22;36257;46.052;12.540;2023-05-09T03:56:33;15.90;99.90
40932;DHT22;36257;46.052;12.540;2023-05-09T03:58:59;15.90;99.90
40932;DHT22;36257;46.052;12.540;2023-05-09T04:01:25;15.90;99.90
40932;DHT22;36257;46.052;12.540;2023-05-09T04:03:51;15.90;99.90
40932;DHT22;36257;46.052;12.540;2023-05-09T04:06:17;15.90;99.90
40932;DHT22;36257;46.052;12.540;2023-05-09T04:08:43;15.90;99.90
40932;DHT22;36257;46.052;12.540;2023-05-09T04:11:09;15.90;99.90
40932;DHT22;36257;46.052;12.540;2023-05-09T04:13:35;15.90;99.90
40932;DHT22;36257;46.052;12.540;2023-05-09T04:16:01;15.90;99.90
40932;DHT22;36257;46.052;12.540;2023-05-09T04:18:27;15.80;99.90
40932;DHT22;36257;46.052;12.540;2023-05-09T04:20:52;15.80;99.90
40932;DHT22;36257;46.052;12.540;2023-05-09T04:23:18;15.80;99.90
40932;DHT22;36257;46.052;12.540;2023-05-09T04:25:44;15.80;99.90
40932;DHT22;36257;46.052;12.540;2023-05-09T04:28:09;15.80;99.90
40932;DHT22;36257;46.052;12.540;2023-05-09T04:30:35;15.90;99.90
40932;DHT22;36257;46.052;12.540;2023-05-09T04:33:01;15.80;99.90
40932;DHT22;36257;46.052;12.540;2023-05-09T04:35:27;15.80;99.90
40932;DHT22;36257;46.052;12.540;2023-05-09T04:37:53;15.80;99.90
40932;DHT22;36257;46.052;12.540;2023-05-09T04:40:18;15.80;99.90
40932;DHT22;36257;46.052;12.540;2023-05-09T04:42:44;15.80;99.90
40932;DHT22;36257;46.052;12.540;2023-05-09T04:45:10;15.90;99.90
40932;DHT22;36257;46.052;12.540;2023-05-09T04:47:36;15.90;99.90
40932;DHT22;36257;46.052;12.540;2023-05-09T04:50:02;15.80;99.90
40932;DHT22;36257;46.052;12.540;2023-05-09T04:52:28;15.90;99.90
40932;DHT22;36257;46.052;12.540;2023-05-09T04:54:53;15.90;99.90
40932;DHT22;36257;46.052;12.540;2023-05-09T04:57:20;15.90;99.90
40932;DHT22;36257;46.052;12.540;2023-05-09T04:59:45;15.90;99.90
40932;DHT22;36257;46.052;12.540;2023-05-09T05:02:11;15.90;99.90
40932;DHT22;36257;46.052;12.540;2023-05-09T05:04:37;15.90;99.90
40932;DHT22;36257;46.052;12.540;2023-05-09T05:07:03;15.90;99.90
40932;DHT22;36257;46.052;12.540;2023-05-09T05:09:29;15.90;99.90
40932;DHT22;36257;46.052;12.540;2023-05-09T05:11:56;15.90;99.90
40932;DHT22;36257;46.052;12.540;2023-05-09T05:14:22;15.90;99.90
40932;DHT22;36257;46.052;12.540;2023-05-09T05:16:47;15.90;99.90
40932;DHT22;36257;46.052;12.540;2023-05-09T05:19:13;16.00;99.90
40932;DHT22;36257;46.052;12.540;2023-05-09T05:21:39;16.00;99.90
40932;DHT22;36257;46.052;12.540;2023-05-09T05:24:04;16.00;99.90
40932;DHT22;36257;46.052;12.540;2023-05-09T05:26:30;16.00;99.90
40932;DHT22;36257;46.052;12.540;2023-05-09T05:28:55;16.00;99.90
40932;DHT22;36257;46.052;12.540;2023-05-09T05:31:21;15.90;99.90
40932;DHT22;36257;46.052;12.540;2023-05-09T05:33:47;16.00;99.90
40932;DHT22;36257;46.052;12.540;2023-05-09T05:36:13;16.10;99.90
40932;DHT22;36257;46.052;12.540;2023-05-09T05:38:38;16.10;99.90
40932;DHT22;36257;46.052;12.540;2023-05-09T05:41:04;16.20;99.90
40932;DHT22;36257;46.052;12.540;2023-05-09T05:43:30;16.20;99.90
40932;DHT22;36257;46.052;12.540;2023-05-09T05:45:55;16.30;99.90
40932;DHT22;36257;46.052;12.540;2023-05-09T05:48:21;16.30;99.90
40932;DHT22;36257;46.052;12.540;2023-05-09T05:50:47;16.40;99.90
40932;DHT22;36257;46.052;12.540;2023-05-09T05:53:12;16.30;99.90
40932;DHT22;36257;46.052;12.540;2023-05-09T05:55:38;16.30;99.90
40932;DHT22;36257;46.052;12.540;2023-05-09T05:58:04;16.20;99.90
40932;DHT22;36257;46.052;12.540;2023-05-09T06:00:29;16.20;99.90
40932;DHT22;36257;46.052;12.540;2023-05-09T06:02:55;16.20;99.90
40932;DHT22;36257;46.052;12.540;2023-05-09T06:05:20;16.40;99.90
40932;DHT22;36257;46.052;12.540;2023-05-09T06:07:46;16.50;99.90
40932;DHT22;36257;46.052;12.540;2023-05-09T06:10:12;16.50;99.90
40932;DHT22;36257;46.052;12.540;2023-05-09T06:12:40;16.60;99.90
40932;DHT22;36257;46.052;12.540;2023-05-09T06:15:06;16.70;99.90
40932;DHT22;36257;46.052;12.540;2023-05-09T06:17:32;16.80;99.90
40932;DHT22;36257;46.052;12.540;2023-05-09T06:19:58;16.90;99.90
40932;DHT22;36257;46.052;12.540;2023-05-09T06:22:23;17.00;99.90
40932;DHT22;36257;46.052;12.540;2023-05-09T06:24:49;17.00;99.90
40932;DHT22;36257;46.052;12.540;2023-05-09T06:27:14;17.00;99.90
40932;DHT22;36257;46.052;12.540;2023-05-09T06:29:40;17.00;99.90
40932;DHT22;36257;46.052;12.540;2023-05-09T06:32:06;17.10;99.90
40932;DHT22;36257;46.052;12.540;2023-05-09T06:34:32;17.10;99.90
40932;DHT22;36257;46.052;12.540;2023-05-09T06:36:57;17.20;99.90
40932;DHT22;36257;46.052;12.540;2023-05-09T06:39:23;17.30;99.90
40932;DHT22;36257;46.052;12.540;2023-05-09T06:41:48;17.30;99.90
40932;DHT22;36257;46.052;12.540;2023-05-09T06:44:14;17.30;99.90
40932;DHT22;36257;46.052;12.540;2023-05-09T06:46:40;17.30;99.90
40932;DHT22;36257;46.052;12.540;2023-05-09T06:49:05;17.20;98.60
40932;DHT22;36257;46.052;12.540;2023-05-09T06:51:31;17.20;99.90
40932;DHT22;36257;46.052;12.540;2023-05-09T06:53:57;17.20;97.60
40932;DHT22;36257;46.052;12.540;2023-05-09T06:56:23;17.30;98.00
40932;DHT22;36257;46.052;12.540;2023-05-09T06:58:49;17.30;93.90
40932;DHT22;36257;46.052;12.540;2023-05-09T07:01:15;17.30;95.80
40932;DHT22;36257;46.052;12.540;2023-05-09T07:03:41;17.40;97.90
40932;DHT22;36257;46.052;12.540;2023-05-09T07:06:07;17.50;98.00
40932;DHT22;36257;46.052;12.540;2023-05-09T07:08:33;17.60;96.90
40932;DHT22;36257;46.052;12.540;2023-05-09T07:10:58;17.70;92.80
40932;DHT22;36257;46.052;12.540;2023-05-09T07:13:24;17.80;92.80
40932;DHT22;36257;46.052;12.540;2023-05-09T07:15:50;17.90;93.20
40932;DHT22;36257;46.052;12.540;2023-05-09T07:18:15;17.90;90.80
40932;DHT22;36257;46.052;12.540;2023-05-09T07:20:41;18.00;92.30
40932;DHT22;36257;46.052;12.540;2023-05-09T07:23:06;18.00;95.90
40932;DHT22;36257;46.052;12.540;2023-05-09T07:25:32;18.00;93.70
40932;DHT22;36257;46.052;12.540;2023-05-09T07:27:58;18.00;94.30
40932;DHT22;36257;46.052;12.540;2023-05-09T07:30:23;18.00;93.40
40932;DHT22;36257;46.052;12.540;2023-05-09T07:32:49;18.10;94.30
40932;DHT22;36257;46.052;12.540;2023-05-09T07:35:16;18.10;92.70
40932;DHT22;36257;46.052;12.540;2023-05-09T07:37:42;18.20;93.30
40932;DHT22;36257;46.052;12.540;2023-05-09T07:40:08;18.30;95.20
40932;DHT22;36257;46.052;12.540;2023-05-09T07:42:34;18.40;93.70
40932;DHT22;36257;46.052;12.540;2023-05-09T07:44:59;18.40;93.70
40932;DHT22;36257;46.052;12.540;2023-05-09T07:47:25;18.50;93.90
40932;DHT22;36257;46.052;12.540;2023-05-09T07:49:51;18.60;91.60
40932;DHT22;36257;46.052;12.540;2023-05-09T07:52:17;18.70;92.30
40932;DHT22;36257;46.052;12.540;2023-05-09T07:54:43;18.90;92.00
40932;DHT22;36257;46.052;12.540;2023-05-09T07:57:09;18.90;90.30
40932;DHT22;36257;46.052;12.540;2023-05-09T07:59:34;18.90;91.20
40932;DHT22;36257;46.052;12.540;2023-05-09T08:02:00;19.00;91.50
40932;DHT22;36257;46.052;12.540;2023-05-09T08:04:26;19.10;92.10
40932;DHT22;36257;46.052;12.540;2023-05-09T08:06:52;19.20;91.40
40932;DHT22;36257;46.052;12.540;2023-05-09T08:09:17;19.20;89.10
40932;DHT22;36257;46.052;12.540;2023-05-09T08:11:43;19.30;89.10
40932;DHT22;36257;46.052;12.540;2023-05-09T08:14:09;19.30;89.20
40932;DHT22;36257;46.052;12.540;2023-05-09T08:16:35;19.40;87.80
40932;DHT22;36257;46.052;12.540;2023-05-09T08:19:01;19.40;87.50
40932;DHT22;36257;46.052;12.540;2023-05-09T08:21:27;19.50;87.00
40932;DHT22;36257;46.052;12.540;2023-05-09T08:23:52;19.50;87.20
40932;DHT22;36257;46.052;12.540;2023-05-09T08:26:18;19.60;88.40
40932;DHT22;36257;46.052;12.540;2023-05-09T08:28:44;19.60;85.10
40932;DHT22;36257;46.052;12.540;2023-05-09T08:31:10;19.70;85.00
40932;DHT22;36257;46.052;12.540;2023-05-09T08:33:35;19.80;87.10
40932;DHT22;36257;46.052;12.540;2023-05-09T08:36:01;19.80;85.70
40932;DHT22;36257;46.052;12.540;2023-05-09T08:38:27;19.80;82.50
40932;DHT22;36257;46.052;12.540;2023-05-09T08:40:59;19.90;84.70
40932;DHT22;36257;46.052;12.540;2023-05-09T08:43:27;19.90;83.50
40932;DHT22;36257;46.052;12.540;2023-05-09T08:45:57;19.90;83.20
40932;DHT22;36257;46.052;12.540;2023-05-09T08:48:24;19.80;82.50
40932;DHT22;36257;46.052;12.540;2023-05-09T08:50:52;19.90;82.30
40932;DHT22;36257;46.052;12.540;2023-05-09T08:53:19;20.00;81.70
40932;DHT22;36257;46.052;12.540;2023-05-09T08:55:46;20.00;83.70
40932;DHT22;36257;46.052;12.540;2023-05-09T08:58:12;20.00;83.20
40932;DHT22;36257;46.052;12.540;2023-05-09T09:00:40;20.10;82.30
40932;DHT22;36257;46.052;12.540;2023-05-09T09:03:06;20.10;80.60
40932;DHT22;36257;46.052;12.540;2023-05-09T09:05:37;20.10;82.90
40932;DHT22;36257;46.052;12.540;2023-05-09T09:08:03;20.20;83.30
40932;DHT22;36257;46.052;12.540;2023-05-09T09:10:32;20.20;80.70
40932;DHT22;36257;46.052;12.540;2023-05-09T09:13:00;20.30;78.60
40932;DHT22;36257;46.052;12.540;2023-05-09T09:15:34;20.50;80.70
40932;DHT22;36257;46.052;12.540;2023-05-09T09:18:05;20.70;78.20
40932;DHT22;36257;46.052;12.540;2023-05-09T09:20:34;20.70;78.10
40932;DHT22;36257;46.052;12.540;2023-05-09T09:23:03;20.60;80.00
40932;DHT22;36257;46.052;12.540;2023-05-09T09:25:30;20.70;79.40
40932;DHT22;36257;46.052;12.540;2023-05-09T09:27:55;20.80;78.60
40932;DHT22;36257;46.052;12.540;2023-05-09T09:30:23;20.90;79.00
40932;DHT22;36257;46.052;12.540;2023-05-09T09:32:49;21.00;80.90
40932;DHT22;36257;46.052;12.540;2023-05-09T09:35:16;21.10;77.20
40932;DHT22;36257;46.052;12.540;2023-05-09T09:37:42;21.20;78.70
40932;DHT22;36257;46.052;12.540;2023-05-09T09:40:09;21.30;80.30
40932;DHT22;36257;46.052;12.540;2023-05-09T09:42:40;21.40;79.40
40932;DHT22;36257;46.052;12.540;2023-05-09T09:45:11;21.60;78.60
40932;DHT22;36257;46.052;12.540;2023-05-09T09:47:38;21.80;76.90
40932;DHT22;36257;46.052;12.540;2023-05-09T09:55:14;22.20;74.20
40932;DHT22;36257;46.052;12.540;2023-05-09T09:57:40;22.20;72.70
40932;DHT22;36257;46.052;12.540;2023-05-09T10:00:10;22.30;75.70
40932;DHT22;36257;46.052;12.540;2023-05-09T10:02:54;22.40;76.90
40932;DHT22;36257;46.052;12.540;2023-05-09T10:05:21;22.50;76.10
40932;DHT22;36257;46.052;12.540;2023-05-09T10:10:21;22.30;76.20
40932;DHT22;36257;46.052;12.540;2023-05-09T10:12:49;22.30;76.90
40932;DHT22;36257;46.052;12.540;2023-05-09T12:51:49;21.50;76.00
40932;DHT22;36257;46.052;12.540;2023-05-09T12:54:28;21.50;75.50
40932;DHT22;36257;46.052;12.540;2023-05-09T12:56:56;21.50;77.20
40932;DHT22;36257;46.052;12.540;2023-05-09T12:59:23;21.50;77.30
40932;DHT22;36257;46.052;12.540;2023-05-09T13:01:57;21.50;76.30
40932;DHT22;36257;46.052;12.540;2023-05-09T13:04:24;21.50;76.60
40932;DHT22;36257;46.052;12.540;2023-05-09T13:06:56;21.60;76.30
40932;DHT22;36257;46.052;12.540;2023-05-09T13:09:55;21.50;73.70
40932;DHT22;36257;46.052;12.540;2023-05-09T13:12:27;21.40;74.00
40932;DHT22;36257;46.052;12.540;2023-05-09T13:14:52;21.40;74.10
40932;DHT22;36257;46.052;12.540;2023-05-09T13:17:18;21.50;74.30
40932;DHT22;36257;46.052;12.540;2023-05-09T13:19:44;21.50;72.90
40932;DHT22;36257;46.052;12.540;2023-05-09T13:22:09;21.40;73.50
40932;DHT22;36257;46.052;12.540;2023-05-09T13:24:36;21.40;74.60
40932;DHT22;36257;46.052;12.540;2023-05-09T13:27:02;21.50;74.70
40932;DHT22;36257;46.052;12.540;2023-05-09T13:29:29;21.60;75.70
40932;DHT22;36257;46.052;12.540;2023-05-09T13:31:54;21.60;76.70
40932;DHT22;36257;46.052;12.540;2023-05-09T13:34:21;21.50;76.60
40932;DHT22;36257;46.052;12.540;2023-05-09T13:36:46;21.50;75.50
40932;DHT22;36257;46.052;12.540;2023-05-09T13:39:12;21.50;76.30
40932;DHT22;36257;46.052;12.540;2023-05-09T13:41:38;21.50;75.60
40932;DHT22;36257;46.052;12.540;2023-05-09T13:44:03;21.50;73.90
40932;DHT22;36257;46.052;12.540;2023-05-09T13:46:29;21.40;75.80
40932;DHT22;36257;46.052;12.540;2023-05-09T13:48:57;21.50;77.10
40932;DHT22;36257;46.052;12.540;2023-05-09T13:51:23;21.50;77.50
40932;DHT22;36257;46.052;12.540;2023-05-09T13:53:52;21.40;77.00
40932;DHT22;36257;46.052;12.540;2023-05-09T13:56:21;21.40;77.90
40932;DHT22;36257;46.052;12.540;2023-05-09T13:58:47;21.30;77.20
40932;DHT22;36257;46.052;12.540;2023-05-09T14:01:13;21.30;76.90
40932;DHT22;36257;46.052;12.540;2023-05-09T14:03:39;21.30;75.40
40932;DHT22;36257;46.052;12.540;2023-05-09T14:06:04;21.30;77.80
40932;DHT22;36257;46.052;12.540;2023-05-09T14:08:30;21.30;76.20
40932;DHT22;36257;46.052;12.540;2023-05-09T14:10:56;21.30;76.60
40932;DHT22;36257;46.052;12.540;2023-05-09T14:13:22;21.30;75.90
40932;DHT22;36257;46.052;12.540;2023-05-09T14:15:47;21.30;78.50
40932;DHT22;36257;46.052;12.540;2023-05-09T14:18:13;21.20;77.20
40932;DHT22;36257;46.052;12.540;2023-05-09T14:20:39;21.30;77.90
40932;DHT22;36257;46.052;12.540;2023-05-09T14:23:05;21.30;76.80
40932;DHT22;36257;46.052;12.540;2023-05-09T14:25:31;21.30;77.60
40932;DHT22;36257;46.052;12.540;2023-05-09T14:27:56;21.30;76.70
40932;DHT22;36257;46.052;12.540;2023-05-09T14:30:23;21.30;75.70
40932;DHT22;36257;46.052;12.540;2023-05-09T14:32:50;21.30;75.20
40932;DHT22;36257;46.052;12.540;2023-05-09T14:35:16;21.30;76.20
40932;DHT22;36257;46.052;12.540;2023-05-09T14:37:42;21.20;76.00
40932;DHT22;36257;46.052;12.540;2023-05-09T14:40:08;21.20;75.50
40932;DHT22;36257;46.052;12.540;2023-05-09T14:42:34;21.20;76.30
40932;DHT22;36257;46.052;12.540;2023-05-09T14:45:01;21.20;76.30
40932;DHT22;36257;46.052;12.540;2023-05-09T14:47:26;21.20;76.70
40932;DHT22;36257;46.052;12.540;2023-05-09T14:49:52;21.30;77.40
40932;DHT22;36257;46.052;12.540;2023-05-09T14:52:18;21.30;78.00
40932;DHT22;36257;46.052;12.540;2023-05-09T14:54:43;21.20;78.90
40932;DHT22;36257;46.052;12.540;2023-05-09T14:57:09;21.10;78.40
40932;DHT22;36257;46.052;12.540;2023-05-09T14:59:35;21.10;79.20
40932;DHT22;36257;46.052;12.540;2023-05-09T15:02:00;21.00;79.50
40932;DHT22;36257;46.052;12.540;2023-05-09T15:04:26;21.00;79.60
40932;DHT22;36257;46.052;12.540;2023-05-09T15:06:55;20.90;79.70
40932;DHT22;36257;46.052;12.540;2023-05-09T15:09:21;20.90;80.40
40932;DHT22;36257;46.052;12.540;2023-05-09T15:11:47;20.80;81.80
40932;DHT22;36257;46.052;12.540;2023-05-09T15:14:13;20.70;82.90
40932;DHT22;36257;46.052;12.540;2023-05-09T15:16:39;20.70;83.90
40932;DHT22;36257;46.052;12.540;2023-05-09T15:19:04;20.70;84.50
40932;DHT22;36257;46.052;12.540;2023-05-09T15:21:30;20.70;84.80
40932;DHT22;36257;46.052;12.540;2023-05-09T15:23:57;20.70;84.60
40932;DHT22;36257;46.052;12.540;2023-05-09T15:26:23;20.60;84.90
40932;DHT22;36257;46.052;12.540;2023-05-09T15:28:49;20.70;85.50
40932;DHT22;36257;46.052;12.540;2023-05-09T15:31:16;20.70;84.70
40932;DHT22;36257;46.052;12.540;2023-05-09T15:33:46;20.60;84.30
40932;DHT22;36257;46.052;12.540;2023-05-09T15:36:12;20.60;84.90
40932;DHT22;36257;46.052;12.540;2023-05-09T15:38:38;20.50;85.50
40932;DHT22;36257;46.052;12.540;2023-05-09T15:41:03;20.50;85.60
40932;DHT22;36257;46.052;12.540;2023-05-09T15:46:05;20.50;85.60
40932;DHT22;36257;46.052;12.540;2023-05-09T15:48:32;20.40;85.10
40932;DHT22;36257;46.052;12.540;2023-05-09T15:50:58;20.40;84.10
40932;DHT22;36257;46.052;12.540;2023-05-09T15:53:24;20.30;84.40
40932;DHT22;36257;46.052;12.540;2023-05-09T15:55:52;20.30;84.60
40932;DHT22;36257;46.052;12.540;2023-05-09T16:00:53;20.30;84.90
40932;DHT22;36257;46.052;12.540;2023-05-09T16:03:21;20.30;85.50
40932;DHT22;36257;46.052;12.540;2023-05-09T16:05:49;20.30;85.70
40932;DHT22;36257;46.052;12.540;2023-05-09T16:08:14;20.30;86.10
40932;DHT22;36257;46.052;12.540;2023-05-09T16:10:41;20.20;86.50
40932;DHT22;36257;46.052;12.540;2023-05-09T16:13:07;20.20;87.10
40932;DHT22;36257;46.052;12.540;2023-05-09T16:15:33;20.20;87.40
40932;DHT22;36257;46.052;12.540;2023-05-09T16:18:01;20.20;87.10
40932;DHT22;36257;46.052;12.540;2023-05-09T16:20:27;20.10;87.40
40932;DHT22;36257;46.052;12.540;2023-05-09T16:22:55;20.10;87.20
40932;DHT22;36257;46.052;12.540;2023-05-09T16:25:25;20.10;87.30
40932;DHT22;36257;46.052;12.540;2023-05-09T16:27:56;20.10;87.80
40932;DHT22;36257;46.052;12.540;2023-05-09T16:30:23;20.10;87.50
40932;DHT22;36257;46.052;12.540;2023-05-09T16:33:09;20.10;86.70
40932;DHT22;36257;46.052;12.540;2023-05-09T16:35:34;20.10;86.20
40932;DHT22;36257;46.052;12.540;2023-05-09T16:38:00;20.10;86.20
40932;DHT22;36257;46.052;12.540;2023-05-09T16:40:26;20.10;86.30
40932;DHT22;36257;46.052;12.540;2023-05-09T16:42:52;20.00;86.50
40932;DHT22;36257;46.052;12.540;2023-05-09T16:45:18;20.00;86.30
40932;DHT22;36257;46.052;12.540;2023-05-09T16:47:44;20.00;86.30
40932;DHT22;36257;46.052;12.540;2023-05-09T16:50:10;20.00;86.50
40932;DHT22;36257;46.052;12.540;2023-05-09T16:52:36;20.00;86.60
40932;DHT22;36257;46.052;12.540;2023-05-09T16:55:02;20.00;87.00
40932;DHT22;36257;46.052;12.540;2023-05-09T16:57:28;19.90;87.80
40932;DHT22;36257;46.052;12.540;2023-05-09T16:59:54;20.00;87.80
40932;DHT22;36257;46.052;12.540;2023-05-09T17:02:20;20.10;87.60
40932;DHT22;36257;46.052;12.540;2023-05-09T17:04:46;20.10;82.90
40932;DHT22;36257;46.052;12.540;2023-05-09T17:07:12;20.00;83.50
40932;DHT22;36257;46.052;12.540;2023-05-09T17:09:39;20.10;83.50
40932;DHT22;36257;46.052;12.540;2023-05-09T17:12:05;20.10;83.60
40932;DHT22;36257;46.052;12.540;2023-05-09T17:14:31;20.00;81.80
40932;DHT22;36257;46.052;12.540;2023-05-09T17:16:56;20.00;80.50
40932;DHT22;36257;46.052;12.540;2023-05-09T17:19:23;20.00;80.60
40932;DHT22;36257;46.052;12.540;2023-05-09T17:21:48;20.00;81.00
40932;DHT22;36257;46.052;12.540;2023-05-09T17:24:14;20.00;81.60
40932;DHT22;36257;46.052;12.540;2023-05-09T17:26:40;19.90;82.90
40932;DHT22;36257;46.052;12.540;2023-05-09T17:29:06;19.80;83.90
40932;DHT22;36257;46.052;12.540;2023-05-09T17:31:32;19.80;85.60
40932;DHT22;36257;46.052;12.540;2023-05-09T17:33:57;19.80;86.20
40932;DHT22;36257;46.052;12.540;2023-05-09T17:36:23;19.70;86.60
40932;DHT22;36257;46.052;12.540;2023-05-09T17:38:50;19.60;87.00
40932;DHT22;36257;46.052;12.540;2023-05-09T17:41:15;19.50;87.40
40932;DHT22;36257;46.052;12.540;2023-05-09T17:43:41;19.40;87.60
40932;DHT22;36257;46.052;12.540;2023-05-09T17:46:06;19.40;87.70
40932;DHT22;36257;46.052;12.540;2023-05-09T17:48:32;19.40;88.00
40932;DHT22;36257;46.052;12.540;2023-05-09T17:50:58;19.40;87.50
40932;DHT22;36257;46.052;12.540;2023-05-09T17:53:23;19.30;87.20
40932;DHT22;36257;46.052;12.540;2023-05-09T17:55:49;19.20;87.00
40932;DHT22;36257;46.052;12.540;2023-05-09T17:58:15;19.10;86.90
40932;DHT22;36257;46.052;12.540;2023-05-09T18:00:40;19.10;87.10
40932;DHT22;36257;46.052;12.540;2023-05-09T18:03:06;19.10;87.40
40932;DHT22;36257;46.052;12.540;2023-05-09T18:05:32;19.10;87.10
40932;DHT22;36257;46.052;12.540;2023-05-09T18:07:58;19.00;87.00